^^
Meteo Knjazevac Station Historical Data
Daily Summary for January 4, 2021 Units:  Metric    English   Both
Daily Weekly Monthly Yearly Custom
  High: Low: Average:
Temperature: 5.7 °C 1.6 °C 3.2 °C
Dew Point: 3.1 °C 0.8 °C 1.8 °C
Humidity: 98% 81% 91%
Wind Speed: 11.3km/h 0km/h 2.7km/h
Wind Gust: 20.9km/h - -
Wind- - SSW
Pressure: 1014.1 hPa 1011.4 hPa -
Precipitation: 0 mm    
Historical Graphs
 
 
Tabular Data for January 4, 2021
Time Temperature Dew Point Pressure Wind Wind Speed Wind Gust Humidity Rainfall Rate (Hourly) solar Conditions
00:00 2.5 °C 2.2 °C 1014.1 hPa SSW 3.2 km/h 8 km/h 98% 0 mm 0 W/m2
00:10 2.5 °C 1.9 °C 1014.1 hPa South 3.2 km/h 9.7 km/h 96% 0 mm 0 W/m2
00:20 2.5 °C 1.9 °C 1013.8 hPa South 3.2 km/h 8 km/h 96% 0 mm 0 W/m2
00:30 2.6 °C 2 °C 1013.8 hPa South 1.6 km/h 8 km/h 96% 0 mm 0 W/m2
00:40 2.6 °C 2 °C 1013.8 hPa SW 4.8 km/h 9.7 km/h 96% 0 mm 0 W/m2
00:50 2.5 °C 1.9 °C 1013.8 hPa SSW 3.2 km/h 8 km/h 96% 0 mm 0 W/m2
01:00 2.6 °C 2 °C 1013.8 hPa SSE 3.2 km/h 8 km/h 96% 0 mm 0 W/m2
01:10 2.6 °C 2 °C 1013.8 hPa SE 4.8 km/h 8 km/h 96% 0 mm 0 W/m2
01:20 2.6 °C 2 °C 1013.8 hPa SSE 3.2 km/h 9.7 km/h 96% 0 mm 0 W/m2
01:30 2.7 °C 2.1 °C 1013.8 hPa South 3.2 km/h 8 km/h 96% 0 mm 0 W/m2
01:40 2.7 °C 2.1 °C 1013.8 hPa SSW 1.6 km/h 8 km/h 96% 0 mm 0 W/m2
01:50 2.7 °C 2.1 °C 1013.8 hPa SSW 3.2 km/h 6.4 km/h 96% 0 mm 0 W/m2
02:00 2.7 °C 2.1 °C 1013.8 hPa South 1.6 km/h 8 km/h 96% 0 mm 0 W/m2
02:10 2.7 °C 2.1 °C 1014.1 hPa South 3.2 km/h 6.4 km/h 96% 0 mm 0 W/m2
02:20 2.7 °C 2.1 °C 1014.1 hPa SSW 3.2 km/h 4.8 km/h 96% 0 mm 0 W/m2
02:30 2.7 °C 2.1 °C 1014.1 hPa SW 4.8 km/h 8 km/h 96% 0 mm 0 W/m2
02:40 2.7 °C 2.1 °C 1013.8 hPa SSW 3.2 km/h 11.3 km/h 96% 0 mm 0 W/m2
02:50 2.6 °C 2 °C 1013.8 hPa SW 1.6 km/h 4.8 km/h 96% 0 mm 0 W/m2
03:00 2.6 °C 2 °C 1013.8 hPa Calm   3.2 km/h 96% 0 mm 0 W/m2
03:10 2.6 °C 1.9 °C 1013.8 hPa WSW 1.6 km/h 8 km/h 95% 0 mm 0 W/m2
03:20 2.6 °C 1.9 °C 1013.8 hPa SW 1.6 km/h 9.7 km/h 95% 0 mm 0 W/m2
03:30 2.5 °C 1.8 °C 1013.8 hPa SE 3.2 km/h 8 km/h 95% 0 mm 0 W/m2
03:40 2.5 °C 1.8 °C 1013.4 hPa SSE 3.2 km/h 8 km/h 95% 0 mm 0 W/m2
03:50 2.5 °C 1.8 °C 1013.4 hPa SSE 1.6 km/h 8 km/h 95% 0 mm 0 W/m2
04:00 2.5 °C 1.8 °C 1013.8 hPa SE 1.6 km/h 8 km/h 95% 0 mm 0 W/m2
04:10 2.5 °C 1.8 °C 1013.8 hPa SW 3.2 km/h 4.8 km/h 95% 0 mm 0 W/m2
04:20 2.4 °C 1.6 °C 1013.8 hPa South 1.6 km/h 4.8 km/h 94% 0 mm 0 W/m2
04:30 2.4 °C 1.7 °C 1013.8 hPa SW 1.6 km/h 6.4 km/h 95% 0 mm 0 W/m2
04:40 2.4 °C 1.7 °C 1013.8 hPa SSW 1.6 km/h 4.8 km/h 95% 0 mm 0 W/m2
04:50 2.4 °C 1.7 °C 1013.8 hPa SSW 3.2 km/h 6.4 km/h 95% 0 mm 0 W/m2
05:00 2.4 °C 1.6 °C 1013.8 hPa SSW 4.8 km/h 8 km/h 94% 0 mm 0 W/m2
05:10 2.3 °C 1.4 °C 1013.8 hPa SSW 3.2 km/h 8 km/h 94% 0 mm 0 W/m2
05:20 2.3 °C 1.4 °C 1013.8 hPa SSW 3.2 km/h 6.4 km/h 94% 0 mm 0 W/m2
05:30 2.3 °C 1.4 °C 1013.8 hPa SW 3.2 km/h 4.8 km/h 94% 0 mm 0 W/m2
05:40 2.3 °C 1.4 °C 1013.8 hPa Calm   4.8 km/h 94% 0 mm 0 W/m2
05:50 2.3 °C 1.4 °C 1013.8 hPa SW 3.2 km/h 4.8 km/h 94% 0 mm 0 W/m2
06:00 2.2 °C 1.3 °C 1013.8 hPa WSW 1.6 km/h 4.8 km/h 94% 0 mm 0 W/m2
06:10 2.2 °C 1.3 °C 1013.8 hPa Calm   3.2 km/h 94% 0 mm 0 W/m2
06:20 2.2 °C 1.3 °C 1014.1 hPa NNW 1.6 km/h 3.2 km/h 94% 0 mm 0 W/m2
06:30 2.2 °C 1.5 °C 1013.8 hPa WSW 3.2 km/h 4.8 km/h 95% 0 mm 0 W/m2
06:40 2.2 °C 1.5 °C 1013.8 hPa NW 1.6 km/h 4.8 km/h 95% 0 mm 0 W/m2
06:50 2.1 °C 1.2 °C 1013.8 hPa West 3.2 km/h 6.4 km/h 94% 0 mm 1 W/m2
07:00 2.1 °C 1.2 °C 1013.8 hPa WSW 1.6 km/h 4.8 km/h 94% 0 mm 4 W/m2
07:10 2.1 °C 1.2 °C 1013.8 hPa WSW 1.6 km/h 6.4 km/h 94% 0 mm 8 W/m2
07:20 2 °C 1.1 °C 1013.4 hPa SE 1.6 km/h 8 km/h 94% 0 mm 13 W/m2
07:30 2.1 °C 1.2 °C 1013.4 hPa SE 1.6 km/h 8 km/h 94% 0 mm 20 W/m2
07:40 2.1 °C 1.2 °C 1013.4 hPa SE 3.2 km/h 6.4 km/h 94% 0 mm 33 W/m2
07:50 2.1 °C 1.2 °C 1013.8 hPa South 1.6 km/h 8 km/h 94% 0 mm 49 W/m2
08:00 2.2 °C 1.5 °C 1013.8 hPa WSW 3.2 km/h 8 km/h 95% 0 mm 69 W/m2
08:10 2.3 °C 1.4 °C 1013.8 hPa West 4.8 km/h 9.7 km/h 94% 0 mm 119 W/m2
08:20 2.5 °C 1.6 °C 1013.8 hPa WSW 8 km/h 9.7 km/h 94% 0 mm 121 W/m2
08:30 2.6 °C 1.6 °C 1014.1 hPa SW 4.8 km/h 11.3 km/h 93% 0 mm 117 W/m2
08:40 2.7 °C 1.7 °C 1014.1 hPa SW 9.7 km/h 14.5 km/h 93% 0 mm 83 W/m2
08:50 2.7 °C 1.4 °C 1014.1 hPa SW 8 km/h 20.9 km/h 91% 0 mm 176 W/m2
09:00 2.8 °C 1.3 °C 1014.1 hPa SSW 4.8 km/h 14.5 km/h 90% 0 mm 151 W/m2
09:10 3.2 °C 1.7 °C 1013.8 hPa South 8 km/h 11.3 km/h 90% 0 mm 235 W/m2
09:20 3.7 °C 2.2 °C 1013.8 hPa SSE 11.3 km/h 14.5 km/h 90% 0 mm 197 W/m2
09:30 3.7 °C 1.9 °C 1013.8 hPa SE 8 km/h 11.3 km/h 88% 0 mm 188 W/m2
09:40 3.7 °C 2.1 °C 1013.8 hPa SE 3.2 km/h 9.7 km/h 89% 0 mm 238 W/m2
09:50 3.8 °C 2 °C 1013.8 hPa SE 3.2 km/h 8 km/h 88% 0 mm 129 W/m2
10:00 3.6 °C 1.8 °C 1013.8 hPa East 3.2 km/h 8 km/h 88% 0 mm 80 W/m2
10:10 3.7 °C 1.9 °C 1013.8 hPa South 1.6 km/h 4.8 km/h 88% 0 mm 248 W/m2
10:20 4.1 °C 2.3 °C 1013.4 hPa SW 4.8 km/h 9.7 km/h 88% 0 mm 323 W/m2
10:30 4.8 °C 2.7 °C 1013.1 hPa SW 1.6 km/h 11.3 km/h 86% 0 mm 330 W/m2
10:40 5.1 °C 2.8 °C 1013.1 hPa West 1.6 km/h 8 km/h 85% 0 mm 337 W/m2
10:50 5.4 °C 2.9 °C 1013.4 hPa South 3.2 km/h 8 km/h 84% 0 mm 239 W/m2
11:00 5.4 °C 2.7 °C 1013.1 hPa SSW 3.2 km/h 8 km/h 83% 0 mm 283 W/m2
11:10 5.4 °C 2.7 °C 1013.1 hPa SSW 3.2 km/h 8 km/h 83% 0 mm 347 W/m2
11:20 5.7 °C 3.1 °C 1013.1 hPa SW 4.8 km/h 9.7 km/h 83% 0 mm 229 W/m2
11:30 5.7 °C 2.7 °C 1013.1 hPa WSW 4.8 km/h 8 km/h 81% 0 mm 218 W/m2
11:40 5.6 °C 2.6 °C 1013.1 hPa SW 4.8 km/h 9.7 km/h 81% 0 mm 238 W/m2
11:50 5.6 °C 2.9 °C 1012.8 hPa SW 4.8 km/h 12.9 km/h 83% 0 mm 286 W/m2
12:00 5.7 °C 3.1 °C 1012.8 hPa SSW 3.2 km/h 9.7 km/h 83% 0 mm 211 W/m2
12:10 5.7 °C 3.1 °C 1012.8 hPa WSW 3.2 km/h 6.4 km/h 83% 0 mm 163 W/m2
12:20 5.7 °C 3.1 °C 1012.8 hPa SE 8 km/h 14.5 km/h 83% 0 mm 160 W/m2
12:30 5.6 °C 2.9 °C 1012.8 hPa SE 9.7 km/h 14.5 km/h 83% 0 mm 189 W/m2
12:40 5.6 °C 2.9 °C 1012.8 hPa SE 8 km/h 12.9 km/h 83% 0 mm 170 W/m2
12:50 5.5 °C 2.8 °C 1012.4 hPa SE 8 km/h 12.9 km/h 83% 0 mm 133 W/m2
13:00 5.3 °C 2.3 °C 1012.8 hPa SE 3.2 km/h 14.5 km/h 81% 0 mm 153 W/m2
13:10 5.3 °C 2.8 °C 1012.4 hPa SE 8 km/h 12.9 km/h 84% 0 mm 161 W/m2
13:20 5.2 °C 2.6 °C 1012.4 hPa SE 4.8 km/h 11.3 km/h 83% 0 mm 130 W/m2
13:30 5.2 °C 2.7 °C 1012.4 hPa ESE 3.2 km/h 12.9 km/h 84% 0 mm 113 W/m2
13:40 5.1 °C 2.6 °C 1012.4 hPa SE 4.8 km/h 12.9 km/h 84% 0 mm 128 W/m2
13:50 5.1 °C 2.6 °C 1012.1 hPa SE 4.8 km/h 12.9 km/h 84% 0 mm 113 W/m2
14:00 5.1 °C 2.6 °C 1012.1 hPa SSE 4.8 km/h 12.9 km/h 84% 0 mm 110 W/m2
14:10 5.1 °C 2.6 °C 1012.1 hPa SSW 4.8 km/h 11.3 km/h 84% 0 mm 88 W/m2
14:20 5.1 °C 2.6 °C 1012.1 hPa South 3.2 km/h 12.9 km/h 84% 0 mm 83 W/m2
14:30 5.1 °C 2.8 °C 1012.1 hPa SSW 3.2 km/h 11.3 km/h 85% 0 mm 71 W/m2
14:40 5 °C 2.7 °C 1012.1 hPa SW 3.2 km/h 8 km/h 85% 0 mm 52 W/m2
14:50 5 °C 2.7 °C 1012.1 hPa WSW 1.6 km/h 6.4 km/h 85% 0 mm 38 W/m2
15:00 5 °C 2.7 °C 1012.1 hPa SE 3.2 km/h 8 km/h 85% 0 mm 45 W/m2
15:10 5 °C 2.7 °C 1011.7 hPa Calm   4.8 km/h 85% 0 mm 44 W/m2
15:20 5 °C 2.7 °C 1011.7 hPa SE 3.2 km/h 8 km/h 85% 0 mm 28 W/m2
15:30 5 °C 2.7 °C 1011.7 hPa SE 3.2 km/h 9.7 km/h 85% 0 mm 13 W/m2
15:40 5 °C 2.8 °C 1011.7 hPa Calm   4.8 km/h 86% 0 mm 18 W/m2
15:50 5 °C 2.8 °C 1011.7 hPa Calm   4.8 km/h 86% 0 mm 8 W/m2
16:00 4.9 °C 2.8 °C 1011.4 hPa Calm   4.8 km/h 86% 0 mm 0 W/m2
16:10 4.8 °C 3 °C 1011.7 hPa WSW 1.6 km/h 4.8 km/h 88% 0 mm 0 W/m2
16:20 4.7 °C 2.9 °C 1011.7 hPa NW 1.6 km/h 4.8 km/h 88% 0 mm 0 W/m2
16:30 4.5 °C 2.7 °C 1011.7 hPa NW 1.6 km/h 4.8 km/h 88% 0 mm 0 W/m2
16:40 4.4 °C 2.6 °C 1011.7 hPa NNW 3.2 km/h 8 km/h 88% 0 mm 0 W/m2
16:50 4.3 °C 2.7 °C 1011.7 hPa NW 1.6 km/h 8 km/h 89% 0 mm 0 W/m2
17:00 4.2 °C 2.5 °C 1011.7 hPa NW 3.2 km/h 6.4 km/h 89% 0 mm 0 W/m2
17:10 4 °C 2.3 °C 1011.7 hPa West 3.2 km/h 8 km/h 89% 0 mm 0 W/m2
17:20 3.8 °C 2.2 °C 1011.7 hPa West 1.6 km/h 8 km/h 89% 0 mm 0 W/m2
17:30 3.6 °C 1.9 °C 1011.7 hPa Calm   4.8 km/h 89% 0 mm 0 W/m2
17:40 3.4 °C 1.8 °C 1011.7 hPa Calm   3.2 km/h 89% 0 mm 0 W/m2
17:50 3.2 °C 1.7 °C 1011.7 hPa North 3.2 km/h 6.4 km/h 90% 0 mm 0 W/m2
18:00 3 °C 1.5 °C 1011.7 hPa Calm   6.4 km/h 90% 0 mm 0 W/m2
18:10 2.9 °C 1.4 °C 1011.7 hPa NNW 1.6 km/h 3.2 km/h 90% 0 mm 0 W/m2
18:20 2.7 °C 1.3 °C 1011.7 hPa North 1.6 km/h 3.2 km/h 91% 0 mm 0 W/m2
18:30 2.5 °C 1.2 °C 1011.7 hPa NW 1.6 km/h 3.2 km/h 91% 0 mm 0 W/m2
18:40 2.3 °C 1 °C 1011.7 hPa Calm   3.2 km/h 91% 0 mm 0 W/m2
18:50 2.1 °C 0.8 °C 1011.7 hPa West 3.2 km/h 3.2 km/h 91% 0 mm 0 W/m2
19:00 1.9 °C 0.9 °C 1011.7 hPa NW 1.6 km/h 6.4 km/h 93% 0 mm 0 W/m2
19:10 1.8 °C 0.8 °C 1011.7 hPa Calm   3.2 km/h 93% 0 mm 0 W/m2
19:20 1.7 °C 0.8 °C 1011.7 hPa NW 1.6 km/h 3.2 km/h 94% 0 mm 0 W/m2
19:30 1.7 °C 0.8 °C 1011.7 hPa West 3.2 km/h 4.8 km/h 94% 0 mm 0 W/m2
19:40 1.6 °C 0.9 °C 1011.7 hPa WNW 1.6 km/h 4.8 km/h 95% 0 mm 0 W/m2
19:50 1.7 °C 1 °C 1011.7 hPa Calm   3.2 km/h 95% 0 mm 0 W/m2
20:00 1.7 °C 1 °C 1011.7 hPa Calm   3.2 km/h 95% 0 mm 0 W/m2
20:10 1.7 °C 1 °C 1011.7 hPa WNW 1.6 km/h 1.6 km/h 95% 0 mm 0 W/m2
20:20 1.7 °C 1 °C 1011.7 hPa WNW 1.6 km/h 3.2 km/h 95% 0 mm 0 W/m2
20:30 1.7 °C 1 °C 1011.7 hPa Calm   3.2 km/h 95% 0 mm 0 W/m2
20:40 1.6 °C 0.9 °C 1011.7 hPa WNW 3.2 km/h 4.8 km/h 95% 0 mm 0 W/m2
20:50 1.6 °C 0.9 °C 1011.7 hPa Calm   3.2 km/h 95% 0 mm 0 W/m2
21:00 1.6 °C 0.9 °C 1011.7 hPa Calm   3.2 km/h 95% 0 mm 0 W/m2
21:10 1.6 °C 0.9 °C 1011.7 hPa NNW 1.6 km/h 3.2 km/h 95% 0 mm 0 W/m2
21:20 1.7 °C 1.1 °C 1011.7 hPa Calm   3.2 km/h 96% 0 mm 0 W/m2
21:30 1.7 °C 1.1 °C 1011.7 hPa Calm   1.6 km/h 96% 0 mm 0 W/m2
21:40 1.7 °C 1.1 °C 1011.7 hPa Calm   1.6 km/h 96% 0 mm 0 W/m2
21:50 1.6 °C 1.1 °C 1011.7 hPa Calm   1.6 km/h 96% 0 mm 0 W/m2
22:00 1.7 °C 1.1 °C 1011.7 hPa Calm   1.6 km/h 96% 0 mm 0 W/m2
22:10 1.6 °C 1.1 °C 1011.7 hPa Calm     96% 0 mm 0 W/m2
22:20 1.6 °C 1.1 °C 1011.7 hPa Calm   3.2 km/h 96% 0 mm 0 W/m2
22:30 1.6 °C 1.1 °C 1011.7 hPa Calm   1.6 km/h 96% 0 mm 0 W/m2
22:40 1.6 °C 1.1 °C 1011.7 hPa Calm   3.2 km/h 96% 0 mm 0 W/m2
22:50 1.6 °C 1.1 °C 1011.7 hPa Calm   1.6 km/h 96% 0 mm 0 W/m2
23:00 1.6 °C 1.1 °C 1011.7 hPa Calm   3.2 km/h 96% 0 mm 0 W/m2
23:10 1.7 °C 1.4 °C 1011.7 hPa WNW 1.6 km/h 4.8 km/h 98% 0 mm 0 W/m2
23:20 1.7 °C 1.4 °C 1011.7 hPa WNW 1.6 km/h 4.8 km/h 98% 0 mm 0 W/m2
23:30 1.7 °C 1.4 °C 1011.7 hPa West 1.6 km/h 3.2 km/h 98% 0 mm 0 W/m2
23:40 1.6 °C 1.1 °C 1011.7 hPa Calm   3.2 km/h 96% 0 mm 0 W/m2
23:50 1.6 °C 1.3 °C 1011.7 hPa Calm   3.2 km/h 98% 0 mm 0 W/m2
Knjazevac, Serbia
Compliments of Weather Underground - 2 mb